Kezdőlap
METAR-TAF:

METAR-TAF

Repülőterek :

Hosztomeli repülőtér

Hostomel, Ukrajna

földrajzi szélesség: 50-36-01N, földrajzi hosszúság: 030-11-37E, magasság: 157 m

Jelenlegi meteorológiai megfigyelések

A jelentés 37 perccel ezelõtt készült, 20:00 UTC
Észak-északnyugati szél 14 kt
Hőmérséklet 5°C
Páratartalom 93%
Légköri nyomás 1018 hPa
Látótávolság 10 km, vagy több

METAR: UKKM 172000Z AUTO 33007MPS 9999 // ///024/// 05/04 Q1018

Idő: 22:37 (20:37 UTC)


TAF: hiányzik

Meteorológiai megfigyelések és előrejelzések több, mint 4000 repülőtéren (METAR és TAF jelentéseket).

A térképen piros és sárga pontok jelzik az elérhető meteorológiai állomásokat.

Mozgassa az egeret a pont fölött, hogy megjelenjen az állomás neve.

Azután kattintson az időjárási megfigyelések és előrejelzések megtekintéséhez.

A térkép megváltoztatása: kattintson a fekete keresztel jelölt zöld gombra ráközelítéshez, a vonallal jelölt zöld gombra távolításhoz, vagy a zöld nyilakra a szomszédos térképek eléréséhez.


METAR-TAF: